sensor_id;sensor_type;location;lat;lon;timestamp;temperature;humidity
10986;DHT22;5546;48.714;8.738;2023-08-30T00:02:18;17.60;99.90
10986;DHT22;5546;48.714;8.738;2023-08-30T00:04:43;17.60;99.90
10986;DHT22;5546;48.714;8.738;2023-08-30T00:07:09;17.60;99.90
10986;DHT22;5546;48.714;8.738;2023-08-30T00:09:36;17.50;99.90
10986;DHT22;5546;48.714;8.738;2023-08-30T00:12:02;17.60;99.90
10986;DHT22;5546;48.714;8.738;2023-08-30T00:14:28;17.50;99.90
10986;DHT22;5546;48.714;8.738;2023-08-30T00:16:53;17.40;99.90
10986;DHT22;5546;48.714;8.738;2023-08-30T00:19:19;17.30;99.90
10986;DHT22;5546;48.714;8.738;2023-08-30T00:21:44;17.40;99.90
10986;DHT22;5546;48.714;8.738;2023-08-30T00:24:10;17.50;99.90
10986;DHT22;5546;48.714;8.738;2023-08-30T00:26:35;17.50;99.90
10986;DHT22;5546;48.714;8.738;2023-08-30T00:29:01;17.70;99.90
10986;DHT22;5546;48.714;8.738;2023-08-30T00:31:26;17.20;99.90
10986;DHT22;5546;48.714;8.738;2023-08-30T00:33:52;17.30;99.90
10986;DHT22;5546;48.714;8.738;2023-08-30T00:36:17;17.30;99.90
10986;DHT22;5546;48.714;8.738;2023-08-30T00:38:44;17.30;99.90
10986;DHT22;5546;48.714;8.738;2023-08-30T00:41:10;17.50;99.90
10986;DHT22;5546;48.714;8.738;2023-08-30T00:43:35;17.50;99.90
10986;DHT22;5546;48.714;8.738;2023-08-30T00:46:00;17.40;99.90
10986;DHT22;5546;48.714;8.738;2023-08-30T00:48:27;17.40;99.90
10986;DHT22;5546;48.714;8.738;2023-08-30T00:50:52;17.40;99.90
10986;DHT22;5546;48.714;8.738;2023-08-30T00:53:18;17.40;99.90
10986;DHT22;5546;48.714;8.738;2023-08-30T00:55:44;17.40;99.90
10986;DHT22;5546;48.714;8.738;2023-08-30T00:58:10;17.40;99.90
10986;DHT22;5546;48.714;8.738;2023-08-30T01:00:36;17.10;99.90
10986;DHT22;5546;48.714;8.738;2023-08-30T01:03:03;17.10;99.90
10986;DHT22;5546;48.714;8.738;2023-08-30T01:05:30;16.70;99.90
10986;DHT22;5546;48.714;8.738;2023-08-30T01:07:56;16.60;99.90
10986;DHT22;5546;48.714;8.738;2023-08-30T01:10:27;16.50;99.90
10986;DHT22;5546;48.714;8.738;2023-08-30T01:13:02;16.80;99.90
10986;DHT22;5546;48.714;8.738;2023-08-30T01:15:31;16.80;99.90
10986;DHT22;5546;48.714;8.738;2023-08-30T01:17:58;16.80;99.90
10986;DHT22;5546;48.714;8.738;2023-08-30T01:20:26;16.90;99.90
10986;DHT22;5546;48.714;8.738;2023-08-30T01:25:50;16.80;99.90
10986;DHT22;5546;48.714;8.738;2023-08-30T01:28:22;16.90;99.90
10986;DHT22;5546;48.714;8.738;2023-08-30T01:30:48;16.90;99.90
10986;DHT22;5546;48.714;8.738;2023-08-30T01:33:15;16.90;99.90
10986;DHT22;5546;48.714;8.738;2023-08-30T01:35:41;16.80;99.90
10986;DHT22;5546;48.714;8.738;2023-08-30T01:38:08;17.00;99.90
10986;DHT22;5546;48.714;8.738;2023-08-30T01:40:39;17.00;99.90
10986;DHT22;5546;48.714;8.738;2023-08-30T01:43:07;17.10;99.90
10986;DHT22;5546;48.714;8.738;2023-08-30T01:45:35;17.00;99.90
10986;DHT22;5546;48.714;8.738;2023-08-30T01:48:02;16.80;99.90
10986;DHT22;5546;48.714;8.738;2023-08-30T01:50:29;16.80;99.90
10986;DHT22;5546;48.714;8.738;2023-08-30T01:52:55;16.90;99.90
10986;DHT22;5546;48.714;8.738;2023-08-30T01:55:22;16.80;99.90
10986;DHT22;5546;48.714;8.738;2023-08-30T01:57:48;16.80;99.90
10986;DHT22;5546;48.714;8.738;2023-08-30T02:00:14;16.50;99.90
10986;DHT22;5546;48.714;8.738;2023-08-30T02:02:40;16.10;99.90
10986;DHT22;5546;48.714;8.738;2023-08-30T02:05:06;16.00;99.90
10986;DHT22;5546;48.714;8.738;2023-08-30T02:07:49;16.10;99.90
10986;DHT22;5546;48.714;8.738;2023-08-30T02:10:40;15.90;99.90
10986;DHT22;5546;48.714;8.738;2023-08-30T02:13:06;16.00;99.90
10986;DHT22;5546;48.714;8.738;2023-08-30T02:15:33;15.70;99.90
10986;DHT22;5546;48.714;8.738;2023-08-30T02:18:02;15.80;99.90
10986;DHT22;5546;48.714;8.738;2023-08-30T02:20:28;16.30;99.90
10986;DHT22;5546;48.714;8.738;2023-08-30T02:22:58;16.40;99.90
10986;DHT22;5546;48.714;8.738;2023-08-30T02:25:24;16.40;99.90
10986;DHT22;5546;48.714;8.738;2023-08-30T02:27:50;16.60;99.90
10986;DHT22;5546;48.714;8.738;2023-08-30T02:30:15;16.60;99.90
10986;DHT22;5546;48.714;8.738;2023-08-30T02:32:41;16.60;99.90
10986;DHT22;5546;48.714;8.738;2023-08-30T02:35:06;16.60;99.90
10986;DHT22;5546;48.714;8.738;2023-08-30T02:37:32;16.60;99.90
10986;DHT22;5546;48.714;8.738;2023-08-30T02:39:57;16.20;99.90
10986;DHT22;5546;48.714;8.738;2023-08-30T02:42:23;16.00;99.90
10986;DHT22;5546;48.714;8.738;2023-08-30T02:44:48;16.00;99.90
10986;DHT22;5546;48.714;8.738;2023-08-30T02:47:14;16.30;99.90
10986;DHT22;5546;48.714;8.738;2023-08-30T02:49:39;16.30;99.90
10986;DHT22;5546;48.714;8.738;2023-08-30T02:52:05;16.40;99.90
10986;DHT22;5546;48.714;8.738;2023-08-30T02:54:30;16.30;99.90
10986;DHT22;5546;48.714;8.738;2023-08-30T02:56:56;16.60;99.90
10986;DHT22;5546;48.714;8.738;2023-08-30T02:59:21;16.40;99.90
10986;DHT22;5546;48.714;8.738;2023-08-30T03:01:47;16.50;99.90
10986;DHT22;5546;48.714;8.738;2023-08-30T03:04:12;16.40;99.90
10986;DHT22;5546;48.714;8.738;2023-08-30T03:06:38;16.40;99.90
10986;DHT22;5546;48.714;8.738;2023-08-30T03:09:03;16.00;99.90
10986;DHT22;5546;48.714;8.738;2023-08-30T03:11:31;16.00;99.90
10986;DHT22;5546;48.714;8.738;2023-08-30T03:13:57;16.10;99.90
10986;DHT22;5546;48.714;8.738;2023-08-30T03:16:22;16.10;99.90
10986;DHT22;5546;48.714;8.738;2023-08-30T03:18:49;16.10;99.90
10986;DHT22;5546;48.714;8.738;2023-08-30T03:21:14;16.20;99.90
10986;DHT22;5546;48.714;8.738;2023-08-30T03:23:41;16.00;99.90
10986;DHT22;5546;48.714;8.738;2023-08-30T03:26:14;16.20;99.90
10986;DHT22;5546;48.714;8.738;2023-08-30T03:28:41;16.40;99.90
10986;DHT22;5546;48.714;8.738;2023-08-30T03:31:17;16.40;99.90
10986;DHT22;5546;48.714;8.738;2023-08-30T03:33:43;16.50;99.90
10986;DHT22;5546;48.714;8.738;2023-08-30T03:36:13;16.40;99.90
10986;DHT22;5546;48.714;8.738;2023-08-30T03:38:39;16.60;99.90
10986;DHT22;5546;48.714;8.738;2023-08-30T03:41:05;16.40;99.90
10986;DHT22;5546;48.714;8.738;2023-08-30T03:43:31;16.40;99.90
10986;DHT22;5546;48.714;8.738;2023-08-30T03:46:00;16.00;99.90
10986;DHT22;5546;48.714;8.738;2023-08-30T03:48:27;16.00;99.90
10986;DHT22;5546;48.714;8.738;2023-08-30T03:50:54;16.20;99.90
10986;DHT22;5546;48.714;8.738;2023-08-30T03:53:20;16.30;99.90
10986;DHT22;5546;48.714;8.738;2023-08-30T03:55:45;16.30;99.90
10986;DHT22;5546;48.714;8.738;2023-08-30T03:58:11;16.20;99.90
10986;DHT22;5546;48.714;8.738;2023-08-30T04:00:37;16.30;99.90
10986;DHT22;5546;48.714;8.738;2023-08-30T04:03:04;16.40;99.90
10986;DHT22;5546;48.714;8.738;2023-08-30T04:05:33;16.40;99.90
10986;DHT22;5546;48.714;8.738;2023-08-30T04:07:59;16.40;99.90
10986;DHT22;5546;48.714;8.738;2023-08-30T04:10:25;16.30;99.90
10986;DHT22;5546;48.714;8.738;2023-08-30T04:12:50;16.40;99.90
10986;DHT22;5546;48.714;8.738;2023-08-30T04:15:16;16.30;99.90
10986;DHT22;5546;48.714;8.738;2023-08-30T04:17:41;16.20;99.90
10986;DHT22;5546;48.714;8.738;2023-08-30T04:20:07;15.60;99.90
10986;DHT22;5546;48.714;8.738;2023-08-30T04:22:35;15.40;99.90
10986;DHT22;5546;48.714;8.738;2023-08-30T04:25:01;15.60;99.90
10986;DHT22;5546;48.714;8.738;2023-08-30T04:27:27;15.60;99.90
10986;DHT22;5546;48.714;8.738;2023-08-30T04:29:53;15.70;99.90
10986;DHT22;5546;48.714;8.738;2023-08-30T04:32:18;15.70;99.90
10986;DHT22;5546;48.714;8.738;2023-08-30T04:34:44;15.90;99.90
10986;DHT22;5546;48.714;8.738;2023-08-30T04:37:09;15.90;99.90
10986;DHT22;5546;48.714;8.738;2023-08-30T04:39:35;16.10;99.90
10986;DHT22;5546;48.714;8.738;2023-08-30T04:42:00;16.30;99.90
10986;DHT22;5546;48.714;8.738;2023-08-30T04:44:28;16.30;99.90
10986;DHT22;5546;48.714;8.738;2023-08-30T04:46:54;16.40;99.90
10986;DHT22;5546;48.714;8.738;2023-08-30T04:49:20;16.50;99.90
10986;DHT22;5546;48.714;8.738;2023-08-30T04:51:45;16.60;99.90
10986;DHT22;5546;48.714;8.738;2023-08-30T04:54:11;16.30;99.90
10986;DHT22;5546;48.714;8.738;2023-08-30T04:56:36;16.20;99.90
10986;DHT22;5546;48.714;8.738;2023-08-30T04:59:02;16.20;99.90
10986;DHT22;5546;48.714;8.738;2023-08-30T05:01:29;16.50;99.90
10986;DHT22;5546;48.714;8.738;2023-08-30T05:03:55;16.50;99.90
10986;DHT22;5546;48.714;8.738;2023-08-30T05:06:21;16.70;99.90
10986;DHT22;5546;48.714;8.738;2023-08-30T05:08:46;16.50;99.90
10986;DHT22;5546;48.714;8.738;2023-08-30T05:11:12;16.60;99.90
10986;DHT22;5546;48.714;8.738;2023-08-30T05:13:38;16.70;99.90
10986;DHT22;5546;48.714;8.738;2023-08-30T05:16:03;16.70;99.90
10986;DHT22;5546;48.714;8.738;2023-08-30T05:18:29;16.50;99.90
10986;DHT22;5546;48.714;8.738;2023-08-30T05:20:54;16.60;99.90
10986;DHT22;5546;48.714;8.738;2023-08-30T05:23:20;16.20;99.90
10986;DHT22;5546;48.714;8.738;2023-08-30T05:25:45;16.20;99.90
10986;DHT22;5546;48.714;8.738;2023-08-30T05:28:12;16.30;99.90
10986;DHT22;5546;48.714;8.738;2023-08-30T05:30:41;16.50;99.90
10986;DHT22;5546;48.714;8.738;2023-08-30T05:33:07;16.40;99.90
10986;DHT22;5546;48.714;8.738;2023-08-30T05:35:32;16.60;99.90
10986;DHT22;5546;48.714;8.738;2023-08-30T05:37:58;16.20;99.90
10986;DHT22;5546;48.714;8.738;2023-08-30T05:40:23;15.80;99.90
10986;DHT22;5546;48.714;8.738;2023-08-30T05:42:49;15.80;99.90
10986;DHT22;5546;48.714;8.738;2023-08-30T05:45:15;15.70;99.90
10986;DHT22;5546;48.714;8.738;2023-08-30T05:47:41;15.20;99.90
10986;DHT22;5546;48.714;8.738;2023-08-30T05:50:07;15.60;99.90
10986;DHT22;5546;48.714;8.738;2023-08-30T05:52:33;15.50;99.90
10986;DHT22;5546;48.714;8.738;2023-08-30T05:54:58;15.30;99.90
10986;DHT22;5546;48.714;8.738;2023-08-30T05:57:24;15.20;99.90
10986;DHT22;5546;48.714;8.738;2023-08-30T05:59:50;15.90;99.90
10986;DHT22;5546;48.714;8.738;2023-08-30T06:04:42;16.20;99.90
10986;DHT22;5546;48.714;8.738;2023-08-30T06:07:07;16.20;99.90
10986;DHT22;5546;48.714;8.738;2023-08-30T06:09:33;16.10;99.90
10986;DHT22;5546;48.714;8.738;2023-08-30T06:14:25;15.80;99.90
10986;DHT22;5546;48.714;8.738;2023-08-30T06:16:51;16.00;99.90
10986;DHT22;5546;48.714;8.738;2023-08-30T06:19:16;16.20;99.90
10986;DHT22;5546;48.714;8.738;2023-08-30T06:21:41;16.40;99.90
10986;DHT22;5546;48.714;8.738;2023-08-30T06:24:07;16.40;99.90
10986;DHT22;5546;48.714;8.738;2023-08-30T06:26:33;16.40;99.90
10986;DHT22;5546;48.714;8.738;2023-08-30T06:28:58;16.40;99.90
10986;DHT22;5546;48.714;8.738;2023-08-30T06:31:24;16.50;99.90
10986;DHT22;5546;48.714;8.738;2023-08-30T06:33:49;16.40;99.90
10986;DHT22;5546;48.714;8.738;2023-08-30T06:36:16;16.50;99.90
10986;DHT22;5546;48.714;8.738;2023-08-30T06:38:43;16.80;99.90
10986;DHT22;5546;48.714;8.738;2023-08-30T06:41:08;16.90;99.90
10986;DHT22;5546;48.714;8.738;2023-08-30T06:43:34;17.00;99.90
10986;DHT22;5546;48.714;8.738;2023-08-30T06:45:59;17.30;99.90
10986;DHT22;5546;48.714;8.738;2023-08-30T06:48:25;17.10;99.90
10986;DHT22;5546;48.714;8.738;2023-08-30T06:50:51;16.50;99.90
10986;DHT22;5546;48.714;8.738;2023-08-30T06:53:17;16.50;99.90
10986;DHT22;5546;48.714;8.738;2023-08-30T06:55:42;16.30;99.90
10986;DHT22;5546;48.714;8.738;2023-08-30T06:58:08;16.20;99.90
10986;DHT22;5546;48.714;8.738;2023-08-30T07:00:33;16.30;99.90
10986;DHT22;5546;48.714;8.738;2023-08-30T07:02:59;16.50;99.90
10986;DHT22;5546;48.714;8.738;2023-08-30T07:05:25;16.80;99.90
10986;DHT22;5546;48.714;8.738;2023-08-30T07:07:50;16.80;99.90
10986;DHT22;5546;48.714;8.738;2023-08-30T07:10:16;16.70;99.90
10986;DHT22;5546;48.714;8.738;2023-08-30T07:12:41;16.60;99.90
10986;DHT22;5546;48.714;8.738;2023-08-30T07:15:07;16.30;99.90
10986;DHT22;5546;48.714;8.738;2023-08-30T07:17:33;16.30;99.90
10986;DHT22;5546;48.714;8.738;2023-08-30T07:22:24;16.40;99.90
10986;DHT22;5546;48.714;8.738;2023-08-30T07:24:50;16.00;99.90
10986;DHT22;5546;48.714;8.738;2023-08-30T07:27:16;16.50;99.90
10986;DHT22;5546;48.714;8.738;2023-08-30T07:29:41;16.50;99.90
10986;DHT22;5546;48.714;8.738;2023-08-30T07:32:08;16.30;99.90
10986;DHT22;5546;48.714;8.738;2023-08-30T07:34:34;16.40;99.90
10986;DHT22;5546;48.714;8.738;2023-08-30T07:36:59;16.50;99.90
10986;DHT22;5546;48.714;8.738;2023-08-30T07:39:25;16.50;99.90
10986;DHT22;5546;48.714;8.738;2023-08-30T07:41:50;16.20;99.90
10986;DHT22;5546;48.714;8.738;2023-08-30T07:44:16;16.30;99.90
10986;DHT22;5546;48.714;8.738;2023-08-30T07:46:42;16.40;99.90
10986;DHT22;5546;48.714;8.738;2023-08-30T07:49:07;16.60;99.90
10986;DHT22;5546;48.714;8.738;2023-08-30T07:51:33;16.60;99.90
10986;DHT22;5546;48.714;8.738;2023-08-30T07:53:59;16.80;99.90
10986;DHT22;5546;48.714;8.738;2023-08-30T07:56:24;16.90;99.90
10986;DHT22;5546;48.714;8.738;2023-08-30T07:58:50;17.20;99.90
10986;DHT22;5546;48.714;8.738;2023-08-30T08:01:15;17.00;99.90
10986;DHT22;5546;48.714;8.738;2023-08-30T08:03:41;17.20;99.90
10986;DHT22;5546;48.714;8.738;2023-08-30T08:06:07;17.30;99.90
10986;DHT22;5546;48.714;8.738;2023-08-30T08:11:01;17.10;99.90
10986;DHT22;5546;48.714;8.738;2023-08-30T08:15:56;17.80;99.90
10986;DHT22;5546;48.714;8.738;2023-08-30T08:18:22;17.70;99.90
10986;DHT22;5546;48.714;8.738;2023-08-30T08:20:47;17.90;99.90
10986;DHT22;5546;48.714;8.738;2023-08-30T08:23:13;18.80;99.90
10986;DHT22;5546;48.714;8.738;2023-08-30T08:25:38;18.80;99.90
10986;DHT22;5546;48.714;8.738;2023-08-30T08:28:04;19.70;99.90
10986;DHT22;5546;48.714;8.738;2023-08-30T08:30:29;20.10;98.90
10986;DHT22;5546;48.714;8.738;2023-08-30T08:32:55;20.20;99.20
10986;DHT22;5546;48.714;8.738;2023-08-30T08:35:21;19.50;99.50
10986;DHT22;5546;48.714;8.738;2023-08-30T08:37:46;19.20;99.90
10986;DHT22;5546;48.714;8.738;2023-08-30T08:40:12;19.30;99.90
10986;DHT22;5546;48.714;8.738;2023-08-30T08:45:04;20.00;99.50
10986;DHT22;5546;48.714;8.738;2023-08-30T08:47:30;21.10;98.70
10986;DHT22;5546;48.714;8.738;2023-08-30T08:49:56;22.10;97.00
10986;DHT22;5546;48.714;8.738;2023-08-30T08:52:26;23.10;95.70
10986;DHT22;5546;48.714;8.738;2023-08-30T08:54:52;23.80;94.10
10986;DHT22;5546;48.714;8.738;2023-08-30T08:57:19;23.50;93.30
10986;DHT22;5546;48.714;8.738;2023-08-30T08:59:46;22.90;94.40
10986;DHT22;5546;48.714;8.738;2023-08-30T09:02:14;23.50;94.10
10986;DHT22;5546;48.714;8.738;2023-08-30T09:04:40;24.60;93.10
10986;DHT22;5546;48.714;8.738;2023-08-30T09:07:06;25.30;91.70
10986;DHT22;5546;48.714;8.738;2023-08-30T09:09:33;25.60;91.00
10986;DHT22;5546;48.714;8.738;2023-08-30T09:11:59;25.80;90.20
10986;DHT22;5546;48.714;8.738;2023-08-30T09:14:25;25.40;90.90
10986;DHT22;5546;48.714;8.738;2023-08-30T09:17:01;25.80;90.20
10986;DHT22;5546;48.714;8.738;2023-08-30T09:19:27;25.90;89.40
10986;DHT22;5546;48.714;8.738;2023-08-30T09:21:54;25.30;90.00
10986;DHT22;5546;48.714;8.738;2023-08-30T09:24:20;24.90;91.20
10986;DHT22;5546;48.714;8.738;2023-08-30T09:26:51;25.10;90.40
10986;DHT22;5546;48.714;8.738;2023-08-30T09:29:18;25.40;90.40
10986;DHT22;5546;48.714;8.738;2023-08-30T09:31:44;25.90;90.10
10986;DHT22;5546;48.714;8.738;2023-08-30T09:34:10;26.60;87.90
10986;DHT22;5546;48.714;8.738;2023-08-30T09:36:37;26.30;86.00
10986;DHT22;5546;48.714;8.738;2023-08-30T09:39:11;26.10;87.10
10986;DHT22;5546;48.714;8.738;2023-08-30T09:41:44;26.10;85.40
10986;DHT22;5546;48.714;8.738;2023-08-30T09:44:10;25.90;86.50
10986;DHT22;5546;48.714;8.738;2023-08-30T09:46:46;25.70;88.00
10986;DHT22;5546;48.714;8.738;2023-08-30T09:49:12;26.80;86.00
10986;DHT22;5546;48.714;8.738;2023-08-30T09:51:39;28.20;83.50
10986;DHT22;5546;48.714;8.738;2023-08-30T09:54:20;28.30;82.10
10986;DHT22;5546;48.714;8.738;2023-08-30T09:56:46;28.30;81.20
10986;DHT22;5546;48.714;8.738;2023-08-30T09:59:13;28.00;80.50
10986;DHT22;5546;48.714;8.738;2023-08-30T10:01:41;28.00;82.00
10986;DHT22;5546;48.714;8.738;2023-08-30T10:04:07;28.40;80.00
10986;DHT22;5546;48.714;8.738;2023-08-30T10:06:39;28.50;80.50
10986;DHT22;5546;48.714;8.738;2023-08-30T10:09:06;27.90;79.40
10986;DHT22;5546;48.714;8.738;2023-08-30T10:11:36;27.90;80.10
10986;DHT22;5546;48.714;8.738;2023-08-30T10:14:03;27.50;79.40
10986;DHT22;5546;48.714;8.738;2023-08-30T10:16:32;26.60;80.30
10986;DHT22;5546;48.714;8.738;2023-08-30T10:19:15;25.80;83.90
10986;DHT22;5546;48.714;8.738;2023-08-30T10:21:45;25.60;83.30
10986;DHT22;5546;48.714;8.738;2023-08-30T10:24:16;25.30;84.20
10986;DHT22;5546;48.714;8.738;2023-08-30T10:26:44;24.90;86.80
10986;DHT22;5546;48.714;8.738;2023-08-30T10:29:12;24.80;88.80
10986;DHT22;5546;48.714;8.738;2023-08-30T10:31:39;23.50;92.50
10986;DHT22;5546;48.714;8.738;2023-08-30T10:34:15;22.20;94.40
10986;DHT22;5546;48.714;8.738;2023-08-30T10:36:56;21.90;94.80
10986;DHT22;5546;48.714;8.738;2023-08-30T10:39:41;21.30;95.90
10986;DHT22;5546;48.714;8.738;2023-08-30T10:42:15;20.80;98.30
10986;DHT22;5546;48.714;8.738;2023-08-30T10:44:57;20.50;98.70
10986;DHT22;5546;48.714;8.738;2023-08-30T10:47:26;20.40;98.90
10986;DHT22;5546;48.714;8.738;2023-08-30T10:49:57;20.00;99.90
10986;DHT22;5546;48.714;8.738;2023-08-30T10:52:24;19.40;99.90
10986;DHT22;5546;48.714;8.738;2023-08-30T10:57:35;19.00;99.90
10986;DHT22;5546;48.714;8.738;2023-08-30T11:02:44;19.10;99.90
10986;DHT22;5546;48.714;8.738;2023-08-30T11:05:11;19.00;99.90
10986;DHT22;5546;48.714;8.738;2023-08-30T11:07:37;19.00;99.90
10986;DHT22;5546;48.714;8.738;2023-08-30T11:10:04;19.00;99.90
10986;DHT22;5546;48.714;8.738;2023-08-30T11:12:30;19.10;99.90
10986;DHT22;5546;48.714;8.738;2023-08-30T11:14:56;18.80;99.90
10986;DHT22;5546;48.714;8.738;2023-08-30T11:17:22;18.80;99.90
10986;DHT22;5546;48.714;8.738;2023-08-30T11:19:56;18.80;99.90
10986;DHT22;5546;48.714;8.738;2023-08-30T11:22:23;19.40;99.90
10986;DHT22;5546;48.714;8.738;2023-08-30T11:24:49;19.70;99.90
10986;DHT22;5546;48.714;8.738;2023-08-30T11:27:18;19.70;99.90
10986;DHT22;5546;48.714;8.738;2023-08-30T11:29:44;19.70;99.90
10986;DHT22;5546;48.714;8.738;2023-08-30T11:32:09;19.50;99.90
10986;DHT22;5546;48.714;8.738;2023-08-30T11:34:35;19.70;99.90
10986;DHT22;5546;48.714;8.738;2023-08-30T11:37:01;19.80;99.90
10986;DHT22;5546;48.714;8.738;2023-08-30T11:39:29;20.00;99.90
10986;DHT22;5546;48.714;8.738;2023-08-30T11:41:56;20.30;99.90
10986;DHT22;5546;48.714;8.738;2023-08-30T11:44:28;20.50;99.90
10986;DHT22;5546;48.714;8.738;2023-08-30T11:46:59;21.10;99.90
10986;DHT22;5546;48.714;8.738;2023-08-30T11:49:26;22.10;99.60
10986;DHT22;5546;48.714;8.738;2023-08-30T11:51:52;23.10;97.90
10986;DHT22;5546;48.714;8.738;2023-08-30T11:54:20;24.10;96.60
10986;DHT22;5546;48.714;8.738;2023-08-30T11:56:46;24.60;96.50
10986;DHT22;5546;48.714;8.738;2023-08-30T11:59:21;24.60;96.80
10986;DHT22;5546;48.714;8.738;2023-08-30T12:01:52;25.80;95.10
10986;DHT22;5546;48.714;8.738;2023-08-30T12:06:51;27.30;91.80
10986;DHT22;5546;48.714;8.738;2023-08-30T12:09:17;27.20;90.40
10986;DHT22;5546;48.714;8.738;2023-08-30T12:11:42;26.90;91.80
10986;DHT22;5546;48.714;8.738;2023-08-30T12:14:09;27.00;92.30
10986;DHT22;5546;48.714;8.738;2023-08-30T12:16:35;27.60;91.20
10986;DHT22;5546;48.714;8.738;2023-08-30T12:19:10;28.40;90.50
10986;DHT22;5546;48.714;8.738;2023-08-30T12:21:40;28.90;91.00
10986;DHT22;5546;48.714;8.738;2023-08-30T12:24:06;31.20;84.40
10986;DHT22;5546;48.714;8.738;2023-08-30T12:26:32;32.80;79.10
10986;DHT22;5546;48.714;8.738;2023-08-30T12:29:00;33.40;79.40
10986;DHT22;5546;48.714;8.738;2023-08-30T12:31:26;33.30;72.40
10986;DHT22;5546;48.714;8.738;2023-08-30T12:33:54;33.30;72.60
10986;DHT22;5546;48.714;8.738;2023-08-30T12:36:19;33.90;71.30
10986;DHT22;5546;48.714;8.738;2023-08-30T12:38:45;34.20;72.70
10986;DHT22;5546;48.714;8.738;2023-08-30T12:41:10;34.40;71.00
10986;DHT22;5546;48.714;8.738;2023-08-30T12:43:36;34.70;72.40
10986;DHT22;5546;48.714;8.738;2023-08-30T12:46:01;36.00;66.90
10986;DHT22;5546;48.714;8.738;2023-08-30T12:48:27;36.30;60.60
10986;DHT22;5546;48.714;8.738;2023-08-30T12:50:52;35.50;61.80
10986;DHT22;5546;48.714;8.738;2023-08-30T12:53:18;33.70;69.40
10986;DHT22;5546;48.714;8.738;2023-08-30T12:55:44;31.80;74.30
10986;DHT22;5546;48.714;8.738;2023-08-30T12:58:09;30.00;78.30
10986;DHT22;5546;48.714;8.738;2023-08-30T13:00:37;29.70;81.00
10986;DHT22;5546;48.714;8.738;2023-08-30T13:03:02;28.90;83.10
10986;DHT22;5546;48.714;8.738;2023-08-30T13:05:29;28.90;81.50
10986;DHT22;5546;48.714;8.738;2023-08-30T13:07:56;29.10;82.70
10986;DHT22;5546;48.714;8.738;2023-08-30T13:10:21;29.20;83.70
10986;DHT22;5546;48.714;8.738;2023-08-30T13:12:47;29.40;80.80
10986;DHT22;5546;48.714;8.738;2023-08-30T13:15:12;28.60;83.90
10986;DHT22;5546;48.714;8.738;2023-08-30T13:17:38;28.20;79.50
10986;DHT22;5546;48.714;8.738;2023-08-30T13:20:04;27.80;84.00
10986;DHT22;5546;48.714;8.738;2023-08-30T13:22:30;26.50;90.40
10986;DHT22;5546;48.714;8.738;2023-08-30T13:24:55;26.40;91.10
10986;DHT22;5546;48.714;8.738;2023-08-30T13:27:21;25.70;91.90
10986;DHT22;5546;48.714;8.738;2023-08-30T13:29:47;25.10;92.40
10986;DHT22;5546;48.714;8.738;2023-08-30T13:32:13;24.40;93.40
10986;DHT22;5546;48.714;8.738;2023-08-30T13:34:38;24.30;94.70
10986;DHT22;5546;48.714;8.738;2023-08-30T13:37:04;23.90;95.60
10986;DHT22;5546;48.714;8.738;2023-08-30T13:41:56;23.70;96.10
10986;DHT22;5546;48.714;8.738;2023-08-30T13:44:22;23.70;96.40
10986;DHT22;5546;48.714;8.738;2023-08-30T13:46:47;23.50;97.30
10986;DHT22;5546;48.714;8.738;2023-08-30T13:49:14;23.50;97.60
10986;DHT22;5546;48.714;8.738;2023-08-30T13:51:40;23.50;98.20
10986;DHT22;5546;48.714;8.738;2023-08-30T13:54:05;23.40;98.00
10986;DHT22;5546;48.714;8.738;2023-08-30T13:56:31;23.30;98.10
10986;DHT22;5546;48.714;8.738;2023-08-30T13:58:57;23.30;98.40
10986;DHT22;5546;48.714;8.738;2023-08-30T14:01:22;23.30;98.30
10986;DHT22;5546;48.714;8.738;2023-08-30T14:03:48;23.30;98.60
10986;DHT22;5546;48.714;8.738;2023-08-30T14:06:14;23.20;98.70
10986;DHT22;5546;48.714;8.738;2023-08-30T14:08:39;23.40;98.30
10986;DHT22;5546;48.714;8.738;2023-08-30T14:11:05;24.00;97.50
10986;DHT22;5546;48.714;8.738;2023-08-30T14:13:31;24.40;96.80
10986;DHT22;5546;48.714;8.738;2023-08-30T14:16:00;24.60;96.30
10986;DHT22;5546;48.714;8.738;2023-08-30T14:18:26;24.50;96.90
10986;DHT22;5546;48.714;8.738;2023-08-30T14:20:55;24.60;97.00
10986;DHT22;5546;48.714;8.738;2023-08-30T14:23:23;24.40;97.00
10986;DHT22;5546;48.714;8.738;2023-08-30T14:26:05;24.20;97.50
10986;DHT22;5546;48.714;8.738;2023-08-30T14:28:39;24.30;97.90
10986;DHT22;5546;48.714;8.738;2023-08-30T14:31:08;24.20;98.10
10986;DHT22;5546;48.714;8.738;2023-08-30T14:33:35;24.20;97.90
10986;DHT22;5546;48.714;8.738;2023-08-30T14:36:00;23.80;98.40
10986;DHT22;5546;48.714;8.738;2023-08-30T14:38:29;23.80;98.60
10986;DHT22;5546;48.714;8.738;2023-08-30T14:41:01;23.70;98.70
10986;DHT22;5546;48.714;8.738;2023-08-30T14:43:27;23.70;98.90
10986;DHT22;5546;48.714;8.738;2023-08-30T14:46:03;23.80;99.20
10986;DHT22;5546;48.714;8.738;2023-08-30T14:48:29;24.20;98.90
10986;DHT22;5546;48.714;8.738;2023-08-30T14:50:57;25.10;97.60
10986;DHT22;5546;48.714;8.738;2023-08-30T14:53:23;25.80;95.80
10986;DHT22;5546;48.714;8.738;2023-08-30T14:55:48;27.10;92.80
10986;DHT22;5546;48.714;8.738;2023-08-30T14:58:14;27.30;92.60
10986;DHT22;5546;48.714;8.738;2023-08-30T15:00:40;28.70;89.80
10986;DHT22;5546;48.714;8.738;2023-08-30T15:03:05;29.20;87.10
10986;DHT22;5546;48.714;8.738;2023-08-30T15:05:31;29.80;85.70
10986;DHT22;5546;48.714;8.738;2023-08-30T15:07:57;29.40;86.70
10986;DHT22;5546;48.714;8.738;2023-08-30T15:10:22;28.70;90.30
10986;DHT22;5546;48.714;8.738;2023-08-30T15:12:48;27.00;92.20
10986;DHT22;5546;48.714;8.738;2023-08-30T15:15:14;26.90;92.50
10986;DHT22;5546;48.714;8.738;2023-08-30T15:17:40;25.10;95.30
10986;DHT22;5546;48.714;8.738;2023-08-30T15:20:08;25.00;95.70
10986;DHT22;5546;48.714;8.738;2023-08-30T15:22:34;23.90;96.50
10986;DHT22;5546;48.714;8.738;2023-08-30T15:25:00;23.50;97.20
10986;DHT22;5546;48.714;8.738;2023-08-30T15:27:28;23.30;98.10
10986;DHT22;5546;48.714;8.738;2023-08-30T15:29:53;23.30;98.20
10986;DHT22;5546;48.714;8.738;2023-08-30T15:32:21;23.50;97.80
10986;DHT22;5546;48.714;8.738;2023-08-30T15:34:47;23.40;98.00
10986;DHT22;5546;48.714;8.738;2023-08-30T15:37:13;22.70;99.30
10986;DHT22;5546;48.714;8.738;2023-08-30T15:39:39;22.20;99.90
10986;DHT22;5546;48.714;8.738;2023-08-30T15:42:05;22.50;99.90
10986;DHT22;5546;48.714;8.738;2023-08-30T15:44:30;22.50;99.90
10986;DHT22;5546;48.714;8.738;2023-08-30T15:46:55;22.70;99.80
10986;DHT22;5546;48.714;8.738;2023-08-30T15:49:21;23.10;99.00
10986;DHT22;5546;48.714;8.738;2023-08-30T15:51:47;23.30;98.50
10986;DHT22;5546;48.714;8.738;2023-08-30T15:54:12;23.20;97.30
10986;DHT22;5546;48.714;8.738;2023-08-30T15:56:38;23.20;97.50
10986;DHT22;5546;48.714;8.738;2023-08-30T15:59:03;22.70;99.70
10986;DHT22;5546;48.714;8.738;2023-08-30T16:01:29;22.70;99.60
10986;DHT22;5546;48.714;8.738;2023-08-30T16:03:55;22.60;99.90
10986;DHT22;5546;48.714;8.738;2023-08-30T16:06:20;22.80;99.30
10986;DHT22;5546;48.714;8.738;2023-08-30T16:08:46;22.30;99.90
10986;DHT22;5546;48.714;8.738;2023-08-30T16:11:11;22.20;99.90